Time;durP1;ratioP1;P1;durP2;ratioP2;P2;SDS_P1;SDS_P2;PMS_P1;PMS_P2;Temp;Humidity;BMP_temperature;BMP_pressure;BME280_temperature;BME280_humidity;BME280_pressure;Samples;Min_cycle;Max_cycle;Signal;HPM_P1;HPM_P2
2022/10/30 00:01:28;;;;;;;;;;;27.20;67.40;;;;;;5041955;28;19916;-78
2022/10/30 00:03:54;;;;;;;;;;;27.10;67.00;;;;;;5048341;28;19923;-78
2022/10/30 00:06:21;;;;;;;;;;;27.00;68.40;;;;;;5034639;28;19975;-78
2022/10/30 00:08:48;;;;;;;;;;;27.10;69.60;;;;;;5035203;28;19924;-76
2022/10/30 00:11:14;;;;;;;;;;;26.90;67.90;;;;;;5035373;28;19925;-78
2022/10/30 00:13:43;;;;;;;;;;;26.70;68.80;;;;;;5053319;28;19920;-75
2022/10/30 00:16:10;;;;;;;;;;;26.70;68.90;;;;;;5053304;28;19919;-76
2022/10/30 00:18:37;;;;;;;;;;;26.70;68.40;;;;;;5050497;28;20382;-76
2022/10/30 00:21:05;;;;;;;;;;;26.80;68.90;;;;;;5034069;28;19909;-75
2022/10/30 00:23:31;;;;;;;;;;;27.00;69.90;;;;;;5044900;28;19924;-77
2022/10/30 00:26:01;;;;;;;;;;;27.30;73.10;;;;;;5053279;28;19928;-78
2022/10/30 00:28:28;;;;;;;;;;;27.50;68.20;;;;;;5050537;28;20453;-76
2022/10/30 00:30:57;;;;;;;;;;;27.50;68.60;;;;;;5052639;28;19917;-76
2022/10/30 00:33:24;;;;;;;;;;;27.40;67.10;;;;;;5041672;28;19917;-77
2022/10/30 00:35:50;;;;;;;;;;;27.30;66.90;;;;;;5043240;28;19912;-75
2022/10/30 00:38:17;;;;;;;;;;;27.10;67.50;;;;;;5051908;28;20379;-75
2022/10/30 00:40:44;;;;;;;;;;;26.90;65.40;;;;;;5048360;28;19921;-72
2022/10/30 00:43:30;;;;;;;;;;;26.70;66.50;;;;;;5040836;28;20024;-73
2022/10/30 00:45:57;;;;;;;;;;;26.60;68.40;;;;;;5033510;28;19932;-77
2022/10/30 00:48:25;;;;;;;;;;;26.90;73.10;;;;;;5035404;28;20021;-75
2022/10/30 00:50:52;;;;;;;;;;;27.30;68.90;;;;;;5033531;28;20705;-77
2022/10/30 00:53:20;;;;;;;;;;;27.70;68.70;;;;;;5046878;28;19919;-75
2022/10/30 00:55:47;;;;;;;;;;;27.90;71.10;;;;;;5049211;28;19913;-77
2022/10/30 00:58:15;;;;;;;;;;;28.20;70.40;;;;;;5033848;28;19910;-76
2022/10/30 01:00:44;;;;;;;;;;;28.60;68.20;;;;;;5037720;28;19913;-77
2022/10/30 01:03:11;;;;;;;;;;;28.80;69.60;;;;;;5043634;28;19914;-76
2022/10/30 01:05:38;;;;;;;;;;;29.00;67.40;;;;;;5051605;28;19921;-75
2022/10/30 01:08:05;;;;;;;;;;;29.10;67.50;;;;;;5050195;28;19924;-77
2022/10/30 01:10:31;;;;;;;;;;;29.10;68.00;;;;;;5049620;28;19952;-77
2022/10/30 01:12:59;;;;;;;;;;;29.20;68.60;;;;;;5046463;28;19917;-75
2022/10/30 01:15:29;;;;;;;;;;;29.30;67.50;;;;;;5034145;28;19963;-76
2022/10/30 01:17:59;;;;;;;;;;;29.40;64.90;;;;;;5031358;28;19909;-75
2022/10/30 01:20:44;;;;;;;;;;;28.90;64.90;;;;;;5050348;28;20492;-77
2022/10/30 01:23:17;;;;;;;;;;;28.80;67.00;;;;;;5051369;28;19920;-76
2022/10/30 01:25:52;;;;;;;;;;;28.90;67.70;;;;;;5042301;28;20319;-76
2022/10/30 01:28:38;;;;;;;;;;;29.00;66.50;;;;;;5051789;28;19909;-75
2022/10/30 01:31:28;;;;;;;;;;;29.10;66.20;;;;;;5043229;28;19960;-76
2022/10/30 01:34:07;;;;;;;;;;;29.20;65.20;;;;;;5043015;28;20289;-76
2022/10/30 01:36:42;;;;;;;;;;;29.10;65.00;;;;;;5037288;28;19913;-74
2022/10/30 01:39:12;;;;;;;;;;;29.00;65.30;;;;;;5035454;28;19917;-77
2022/10/30 01:41:38;;;;;;;;;;;28.90;64.40;;;;;;5032686;28;19963;-76
2022/10/30 01:44:08;;;;;;;;;;;28.90;65.10;;;;;;5036820;28;19962;-76
2022/10/30 01:46:52;;;;;;;;;;;28.80;62.60;;;;;;5032805;28;20004;-77
2022/10/30 01:49:38;;;;;;;;;;;28.50;63.50;;;;;;5033072;28;20435;-76
2022/10/30 01:52:10;;;;;;;;;;;28.10;64.10;;;;;;5032807;28;19963;-76
2022/10/30 01:54:46;;;;;;;;;;;28.20;65.80;;;;;;5040479;28;19917;-71
2022/10/30 01:57:13;;;;;;;;;;;28.50;65.70;;;;;;5032582;28;20378;-77
2022/10/30 01:59:40;;;;;;;;;;;28.70;64.20;;;;;;5034094;28;19913;-77
2022/10/30 02:02:06;;;;;;;;;;;28.90;64.50;;;;;;5032978;28;19917;-75
2022/10/30 02:04:33;;;;;;;;;;;28.90;63.40;;;;;;5042623;28;19970;-76
2022/10/30 02:07:00;;;;;;;;;;;28.90;64.60;;;;;;5051228;28;19909;-78
2022/10/30 02:09:26;;;;;;;;;;;28.90;65.70;;;;;;5039863;28;19928;-76
2022/10/30 02:11:54;;;;;;;;;;;29.00;63.80;;;;;;5032926;28;19917;-76
2022/10/30 02:14:22;;;;;;;;;;;28.90;63.60;;;;;;5048022;28;19944;-77
2022/10/30 02:16:50;;;;;;;;;;;28.80;63.50;;;;;;5045763;28;19909;-76
2022/10/30 02:19:17;;;;;;;;;;;28.30;63.20;;;;;;5042921;28;20148;-75
2022/10/30 02:21:44;;;;;;;;;;;28.30;65.20;;;;;;5032251;28;19909;-77
2022/10/30 02:24:11;;;;;;;;;;;28.40;63.30;;;;;;5042140;28;19913;-76
2022/10/30 02:26:37;;;;;;;;;;;28.30;64.10;;;;;;5032008;28;20363;-76
2022/10/30 02:29:04;;;;;;;;;;;28.40;64.70;;;;;;5033486;28;20291;-76
2022/10/30 02:31:31;;;;;;;;;;;28.90;66.10;;;;;;5044869;28;19917;-74
2022/10/30 02:33:57;;;;;;;;;;;29.00;63.50;;;;;;5050519;28;20035;-73
2022/10/30 02:36:24;;;;;;;;;;;29.10;63.40;;;;;;5041879;28;19916;-75
2022/10/30 02:38:51;;;;;;;;;;;28.90;63.40;;;;;;5046162;28;20351;-77
2022/10/30 02:41:17;;;;;;;;;;;28.90;64.00;;;;;;5032101;28;20395;-76
2022/10/30 02:43:44;;;;;;;;;;;28.70;62.30;;;;;;5043059;28;20035;-72
2022/10/30 02:46:11;;;;;;;;;;;28.60;63.70;;;;;;5033824;28;19909;-76
2022/10/30 02:48:37;;;;;;;;;;;29.00;62.30;;;;;;5036787;28;19921;-73
2022/10/30 02:51:04;;;;;;;;;;;28.90;63.10;;;;;;5036995;28;19920;-75
2022/10/30 02:53:33;;;;;;;;;;;28.50;63.50;;;;;;5039487;28;19913;-71
2022/10/30 02:56:06;;;;;;;;;;;28.40;62.90;;;;;;5042018;28;20349;-72
2022/10/30 02:58:33;;;;;;;;;;;27.90;64.10;;;;;;5052669;28;19913;-71
2022/10/30 03:01:10;;;;;;;;;;;28.00;64.50;;;;;;5035673;28;20287;-71
2022/10/30 03:03:37;;;;;;;;;;;27.90;63.60;;;;;;5036528;28;19913;-73
2022/10/30 03:06:05;;;;;;;;;;;28.00;66.70;;;;;;5042412;28;20004;-70
2022/10/30 03:08:32;;;;;;;;;;;28.20;65.40;;;;;;5046628;28;19963;-68
2022/10/30 03:11:06;;;;;;;;;;;28.60;63.60;;;;;;5035504;28;20287;-70
2022/10/30 03:13:33;;;;;;;;;;;29.00;64.70;;;;;;5045370;28;19963;-69
2022/10/30 03:16:10;;;;;;;;;;;29.30;65.00;;;;;;5035259;28;19913;-72
2022/10/30 03:18:37;;;;;;;;;;;29.20;62.30;;;;;;5036202;28;20003;-75
2022/10/30 03:21:05;;;;;;;;;;;29.00;63.40;;;;;;5035405;28;19939;-74
2022/10/30 03:23:31;;;;;;;;;;;28.90;62.70;;;;;;5036112;28;20007;-77
2022/10/30 03:25:58;;;;;;;;;;;28.60;63.30;;;;;;5046739;28;20324;-70
2022/10/30 03:28:26;;;;;;;;;;;28.50;63.40;;;;;;5052372;28;19936;-69
2022/10/30 03:31:10;;;;;;;;;;;28.30;63.40;;;;;;5042811;28;19958;-67
2022/10/30 03:33:37;;;;;;;;;;;28.60;63.10;;;;;;5051426;28;19916;-69
2022/10/30 03:36:05;;;;;;;;;;;28.50;62.20;;;;;;5034895;28;19909;-69
2022/10/30 03:38:32;;;;;;;;;;;28.30;63.90;;;;;;5037719;28;19917;-73
2022/10/30 03:40:59;;;;;;;;;;;28.10;63.80;;;;;;5039986;28;20379;-75
2022/10/30 03:43:25;;;;;;;;;;;28.40;63.80;;;;;;5048966;28;19960;-77
2022/10/30 03:45:53;;;;;;;;;;;28.50;62.90;;;;;;5053891;28;20321;-70
2022/10/30 03:48:21;;;;;;;;;;;28.70;62.80;;;;;;5053803;28;19916;-79
2022/10/30 03:50:48;;;;;;;;;;;28.80;64.10;;;;;;5034994;28;20063;-77
2022/10/30 03:53:15;;;;;;;;;;;28.70;63.30;;;;;;5034525;28;19982;-73
2022/10/30 03:55:42;;;;;;;;;;;28.30;63.00;;;;;;5035114;28;20264;-80
2022/10/30 03:58:08;;;;;;;;;;;28.40;62.90;;;;;;5034146;28;19964;-73
2022/10/30 04:00:35;;;;;;;;;;;28.30;62.90;;;;;;5053267;28;19913;-77
2022/10/30 04:03:05;;;;;;;;;;;28.50;64.40;;;;;;5054667;28;20054;-74
2022/10/30 04:05:32;;;;;;;;;;;28.60;64.30;;;;;;5035991;28;19913;-78
2022/10/30 04:08:03;;;;;;;;;;;28.70;62.90;;;;;;5046608;28;19913;-70
2022/10/30 04:10:29;;;;;;;;;;;28.40;63.20;;;;;;5035686;28;20374;-69
2022/10/30 04:13:00;;;;;;;;;;;28.40;65.70;;;;;;5034513;28;19917;-68
2022/10/30 04:15:27;;;;;;;;;;;28.50;65.00;;;;;;5034051;28;19913;-74
2022/10/30 04:17:54;;;;;;;;;;;28.40;63.90;;;;;;5032077;28;19923;-76
2022/10/30 04:20:21;;;;;;;;;;;28.40;64.70;;;;;;5036075;28;19955;-78
2022/10/30 04:22:48;;;;;;;;;;;28.30;63.70;;;;;;5041136;28;19916;-71
2022/10/30 04:25:14;;;;;;;;;;;28.20;63.30;;;;;;5052920;28;19952;-78
2022/10/30 04:27:42;;;;;;;;;;;28.00;64.20;;;;;;5054076;28;19963;-75
2022/10/30 04:30:10;;;;;;;;;;;27.70;63.50;;;;;;5037474;28;19917;-74
2022/10/30 04:32:44;;;;;;;;;;;27.50;63.80;;;;;;5039259;28;19981;-77
2022/10/30 04:35:11;;;;;;;;;;;27.30;64.50;;;;;;5034872;28;19920;-77
2022/10/30 04:37:37;;;;;;;;;;;27.10;64.90;;;;;;5034019;28;20298;-77
2022/10/30 04:40:04;;;;;;;;;;;27.20;64.50;;;;;;5034371;28;19913;-74
2022/10/30 04:42:31;;;;;;;;;;;27.30;65.00;;;;;;5034038;28;19909;-73
2022/10/30 04:45:01;;;;;;;;;;;27.60;64.00;;;;;;5034501;28;20287;-77
2022/10/30 04:47:29;;;;;;;;;;;27.70;64.50;;;;;;5033755;28;19966;-75
2022/10/30 04:49:56;;;;;;;;;;;27.60;64.80;;;;;;5047193;28;20042;-73
2022/10/30 04:52:22;;;;;;;;;;;27.40;65.20;;;;;;5053527;28;19916;-73
2022/10/30 04:54:49;;;;;;;;;;;27.50;65.40;;;;;;5048791;28;19913;-72
2022/10/30 04:57:16;;;;;;;;;;;27.40;64.70;;;;;;5052475;28;19924;-74
2022/10/30 04:59:42;;;;;;;;;;;27.20;65.00;;;;;;5052492;28;19927;-75
2022/10/30 05:02:09;;;;;;;;;;;27.20;66.60;;;;;;5051826;28;20398;-70
2022/10/30 05:04:36;;;;;;;;;;;27.20;65.00;;;;;;5041413;28;20505;-76
2022/10/30 05:07:03;;;;;;;;;;;27.00;63.80;;;;;;5037857;28;20279;-75
2022/10/30 05:09:29;;;;;;;;;;;26.80;65.30;;;;;;5041709;28;19939;-75
2022/10/30 05:11:56;;;;;;;;;;;26.70;64.30;;;;;;5033055;28;19940;-71
2022/10/30 05:14:23;;;;;;;;;;;26.50;65.80;;;;;;5034114;28;20280;-77
2022/10/30 05:16:49;;;;;;;;;;;26.40;65.00;;;;;;5033350;28;19909;-70
2022/10/30 05:19:16;;;;;;;;;;;26.40;65.30;;;;;;5034111;28;19917;-71
2022/10/30 05:21:43;;;;;;;;;;;26.30;66.40;;;;;;5045604;28;19923;-76
2022/10/30 05:24:09;;;;;;;;;;;26.30;69.30;;;;;;5049666;28;19912;-76
2022/10/30 05:26:36;;;;;;;;;;;26.30;70.90;;;;;;5052177;28;19920;-71
2022/10/30 05:29:03;;;;;;;;;;;26.20;69.90;;;;;;5045069;28;19924;-71
2022/10/30 05:31:29;;;;;;;;;;;26.20;70.50;;;;;;5032114;28;20371;-71
2022/10/30 05:33:56;;;;;;;;;;;26.20;70.40;;;;;;5037905;28;20294;-71
2022/10/30 05:36:23;;;;;;;;;;;26.30;69.70;;;;;;5036878;28;19952;-70
2022/10/30 05:38:49;;;;;;;;;;;26.20;70.40;;;;;;5046646;28;19919;-70
2022/10/30 05:41:16;;;;;;;;;;;26.30;70.10;;;;;;5038009;28;19908;-67
2022/10/30 05:43:43;;;;;;;;;;;26.30;69.50;;;;;;5048090;28;19913;-68
2022/10/30 05:46:09;;;;;;;;;;;26.30;71.40;;;;;;5034549;28;20325;-69
2022/10/30 05:48:36;;;;;;;;;;;26.50;70.70;;;;;;5048591;28;19913;-70
2022/10/30 05:51:03;;;;;;;;;;;26.50;70.40;;;;;;5032445;28;19924;-72
2022/10/30 05:53:32;;;;;;;;;;;26.30;70.60;;;;;;5047824;28;19962;-69
2022/10/30 05:55:59;;;;;;;;;;;26.20;71.00;;;;;;5031517;28;19913;-75
2022/10/30 05:58:26;;;;;;;;;;;26.00;70.40;;;;;;5038674;28;19921;-68
2022/10/30 06:00:52;;;;;;;;;;;25.70;70.60;;;;;;5050713;28;19917;-70
2022/10/30 06:03:19;;;;;;;;;;;25.50;69.90;;;;;;5049731;28;19920;-70
2022/10/30 06:05:46;;;;;;;;;;;25.30;69.20;;;;;;5041809;28;19952;-72
2022/10/30 06:08:15;;;;;;;;;;;25.20;68.90;;;;;;5049675;28;19974;-72
2022/10/30 06:10:42;;;;;;;;;;;25.10;69.70;;;;;;5031977;28;19910;-72
2022/10/30 06:13:09;;;;;;;;;;;25.00;69.80;;;;;;5031352;28;19996;-73
2022/10/30 06:15:36;;;;;;;;;;;24.90;70.30;;;;;;5040927;28;19956;-69
2022/10/30 06:18:02;;;;;;;;;;;24.70;71.00;;;;;;5051145;28;19917;-69
2022/10/30 06:20:29;;;;;;;;;;;24.70;71.30;;;;;;5031313;28;20383;-70
2022/10/30 06:22:57;;;;;;;;;;;24.70;72.00;;;;;;5039475;28;20011;-70
2022/10/30 06:25:25;;;;;;;;;;;24.80;71.90;;;;;;4901717;28;3766353;-70
2022/10/30 06:27:52;;;;;;;;;;;24.90;71.80;;;;;;5032114;28;20286;-71
2022/10/30 06:30:19;;;;;;;;;;;24.90;72.30;;;;;;5032970;28;19909;-69
2022/10/30 06:32:45;;;;;;;;;;;24.90;72.90;;;;;;5041993;28;19929;-69
2022/10/30 06:35:12;;;;;;;;;;;25.00;72.80;;;;;;5035323;28;19920;-69
2022/10/30 06:37:44;;;;;;;;;;;25.00;72.10;;;;;;5032007;28;20026;-69
2022/10/30 06:40:11;;;;;;;;;;;24.90;69.90;;;;;;5040433;28;19913;-68
2022/10/30 06:42:42;;;;;;;;;;;24.50;70.70;;;;;;5052124;28;19917;-70
2022/10/30 06:45:09;;;;;;;;;;;24.20;71.50;;;;;;5035533;28;19909;-71
2022/10/30 06:47:36;;;;;;;;;;;24.10;72.70;;;;;;5031963;28;19948;-68
2022/10/30 06:50:04;;;;;;;;;;;24.10;72.20;;;;;;5044709;28;19938;-69
2022/10/30 06:52:30;;;;;;;;;;;24.00;71.90;;;;;;5051652;28;20275;-69
2022/10/30 06:54:57;;;;;;;;;;;23.70;73.40;;;;;;5037084;28;19921;-69
2022/10/30 06:57:24;;;;;;;;;;;23.60;73.60;;;;;;5043552;28;20000;-69
2022/10/30 06:59:51;;;;;;;;;;;23.50;74.10;;;;;;5050543;28;19913;-69
2022/10/30 07:02:18;;;;;;;;;;;23.50;74.70;;;;;;5050047;28;20329;-71
2022/10/30 07:04:45;;;;;;;;;;;23.50;75.10;;;;;;5038852;28;19913;-70
2022/10/30 07:07:12;;;;;;;;;;;23.60;75.20;;;;;;5046481;28;19916;-69
2022/10/30 07:09:38;;;;;;;;;;;23.60;74.70;;;;;;5032477;28;19917;-72
2022/10/30 07:12:06;;;;;;;;;;;23.40;74.90;;;;;;5032309;28;20394;-70
2022/10/30 07:14:32;;;;;;;;;;;23.30;75.40;;;;;;5040390;28;19913;-68
2022/10/30 07:16:59;;;;;;;;;;;23.20;75.30;;;;;;5031816;28;19935;-69
2022/10/30 07:19:25;;;;;;;;;;;23.10;75.40;;;;;;5032613;28;20471;-69
2022/10/30 07:21:52;;;;;;;;;;;23.00;75.50;;;;;;5031461;28;19913;-68
2022/10/30 07:24:19;;;;;;;;;;;23.00;75.70;;;;;;5037002;28;19917;-70
2022/10/30 07:26:46;;;;;;;;;;;22.80;76.40;;;;;;5044921;28;20325;-69
2022/10/30 07:29:22;;;;;;;;;;;22.60;76.80;;;;;;5036161;28;19953;-69
2022/10/30 07:31:48;;;;;;;;;;;22.50;76.80;;;;;;5032420;28;19928;-70
2022/10/30 07:34:15;;;;;;;;;;;22.30;76.70;;;;;;5042733;28;19924;-71
2022/10/30 07:36:42;;;;;;;;;;;22.20;77.60;;;;;;5042141;28;19916;-76
2022/10/30 07:39:08;;;;;;;;;;;22.00;77.20;;;;;;5042799;28;19917;-76
2022/10/30 07:41:35;;;;;;;;;;;21.90;77.30;;;;;;5051863;28;19919;-78
2022/10/30 07:44:02;;;;;;;;;;;21.90;77.30;;;;;;5047591;28;20288;-77
2022/10/30 07:46:28;;;;;;;;;;;21.80;77.60;;;;;;5035143;28;19909;-78
2022/10/30 07:48:55;;;;;;;;;;;21.70;78.20;;;;;;5035736;28;19952;-76
2022/10/30 07:51:22;;;;;;;;;;;21.60;79.00;;;;;;5034747;28;19924;-75
2022/10/30 07:53:49;;;;;;;;;;;21.60;79.30;;;;;;5035307;28;20003;-76
2022/10/30 07:56:15;;;;;;;;;;;21.60;79.50;;;;;;5034906;28;19909;-76
2022/10/30 07:58:42;;;;;;;;;;;21.50;79.90;;;;;;5048017;28;19917;-77
2022/10/30 08:01:09;;;;;;;;;;;21.40;80.20;;;;;;5034720;28;19909;-77
2022/10/30 08:03:35;;;;;;;;;;;21.40;80.40;;;;;;5035512;28;19919;-76
2022/10/30 08:06:02;;;;;;;;;;;21.30;81.20;;;;;;5034301;28;19971;-78
2022/10/30 08:08:29;;;;;;;;;;;21.20;81.60;;;;;;5047497;28;19923;-76
2022/10/30 08:10:55;;;;;;;;;;;21.20;81.80;;;;;;5034581;28;20307;-78
2022/10/30 08:13:22;;;;;;;;;;;21.10;82.30;;;;;;5035560;28;20280;-77
2022/10/30 08:15:49;;;;;;;;;;;21.00;82.50;;;;;;5048132;28;19963;-76
2022/10/30 08:18:15;;;;;;;;;;;20.90;83.20;;;;;;5034888;28;20314;-77
2022/10/30 08:20:47;;;;;;;;;;;20.80;83.90;;;;;;5054296;28;19920;-78
2022/10/30 08:23:16;;;;;;;;;;;20.70;84.40;;;;;;5052236;28;19999;-77
2022/10/30 08:25:43;;;;;;;;;;;20.60;85.00;;;;;;5054012;28;19960;-77
2022/10/30 08:28:10;;;;;;;;;;;20.60;85.40;;;;;;5051482;28;19909;-76
2022/10/30 08:30:38;;;;;;;;;;;20.50;85.50;;;;;;5035504;28;19909;-76
2022/10/30 08:33:06;;;;;;;;;;;20.40;85.70;;;;;;5042747;28;20007;-77
2022/10/30 08:35:33;;;;;;;;;;;20.40;86.20;;;;;;5053388;28;20378;-78
2022/10/30 08:38:01;;;;;;;;;;;20.40;86.40;;;;;;5053532;28;19995;-74
2022/10/30 08:40:28;;;;;;;;;;;20.30;86.70;;;;;;5034978;28;19924;-75
2022/10/30 08:42:57;;;;;;;;;;;20.30;85.00;;;;;;5032866;28;19916;-72
2022/10/30 08:45:24;;;;;;;;;;;20.20;85.10;;;;;;5051389;28;20021;-76
2022/10/30 08:47:57;;;;;;;;;;;20.20;84.90;;;;;;5053183;28;20379;-75
2022/10/30 08:50:24;;;;;;;;;;;20.10;84.80;;;;;;5047536;28;19917;-77
2022/10/30 08:52:51;;;;;;;;;;;20.10;84.90;;;;;;5033679;28;19921;-76
2022/10/30 08:55:17;;;;;;;;;;;20.10;84.80;;;;;;5035149;28;20376;-78
2022/10/30 08:57:44;;;;;;;;;;;20.00;85.60;;;;;;5053562;28;19909;-75
2022/10/30 09:00:12;;;;;;;;;;;20.00;86.20;;;;;;5037012;28;19913;-76
2022/10/30 09:02:41;;;;;;;;;;;19.90;86.50;;;;;;5033391;28;20406;-78
2022/10/30 09:05:17;;;;;;;;;;;19.80;87.00;;;;;;5045920;28;19921;-77
2022/10/30 09:07:54;;;;;;;;;;;19.80;87.70;;;;;;5053325;28;19978;-77
2022/10/30 09:10:24;;;;;;;;;;;19.70;87.90;;;;;;5042873;28;20394;-77
2022/10/30 09:13:01;;;;;;;;;;;19.70;88.40;;;;;;5053338;28;19927;-72
2022/10/30 09:15:33;;;;;;;;;;;19.70;88.40;;;;;;5052227;28;20359;-76
2022/10/30 09:18:01;;;;;;;;;;;19.70;88.70;;;;;;5053099;28;19962;-71
2022/10/30 09:20:31;;;;;;;;;;;19.70;88.80;;;;;;5036647;28;20263;-75
2022/10/30 09:22:58;;;;;;;;;;;19.70;88.90;;;;;;5052419;28;19913;-77
2022/10/30 09:25:24;;;;;;;;;;;19.70;88.90;;;;;;5036204;28;20418;-78
2022/10/30 09:27:51;;;;;;;;;;;19.70;89.20;;;;;;5032229;28;19909;-75
2022/10/30 09:30:17;;;;;;;;;;;19.70;89.60;;;;;;5047568;28;19921;-77
2022/10/30 09:32:44;;;;;;;;;;;19.60;89.90;;;;;;5052310;28;20401;-76
2022/10/30 09:35:11;;;;;;;;;;;19.60;89.90;;;;;;5051076;28;20389;-78
2022/10/30 09:37:39;;;;;;;;;;;19.60;90.10;;;;;;5051328;28;19916;-77
2022/10/30 09:40:06;;;;;;;;;;;19.60;90.20;;;;;;5049459;28;19972;-75
2022/10/30 09:42:35;;;;;;;;;;;19.50;90.20;;;;;;5032624;28;19909;-78
2022/10/30 09:45:11;;;;;;;;;;;19.50;90.40;;;;;;5038577;28;19959;-76
2022/10/30 09:47:49;;;;;;;;;;;19.40;90.40;;;;;;5032274;28;19920;-76
2022/10/30 09:50:31;;;;;;;;;;;19.30;90.70;;;;;;5046071;28;20372;-78
2022/10/30 09:53:00;;;;;;;;;;;19.30;91.00;;;;;;5048956;28;19925;-79
2022/10/30 09:55:27;;;;;;;;;;;19.30;91.20;;;;;;5035364;28;19914;-72
2022/10/30 09:58:11;;;;;;;;;;;19.30;91.20;;;;;;5032827;28;19956;-77
2022/10/30 10:00:39;;;;;;;;;;;19.20;91.40;;;;;;5049817;28;19917;-77
2022/10/30 10:03:08;;;;;;;;;;;19.20;91.50;;;;;;5051819;28;20025;-77
2022/10/30 10:05:55;;;;;;;;;;;19.10;92.00;;;;;;5050770;28;19912;-78
2022/10/30 10:08:24;;;;;;;;;;;19.00;92.00;;;;;;5049613;28;19955;-74
2022/10/30 10:11:02;;;;;;;;;;;18.90;92.40;;;;;;5051577;28;20296;-76
2022/10/30 10:13:34;;;;;;;;;;;18.80;92.60;;;;;;5049938;28;19999;-78
2022/10/30 10:16:20;;;;;;;;;;;18.80;92.90;;;;;;5031617;28;19962;-75
2022/10/30 10:18:46;;;;;;;;;;;18.70;93.00;;;;;;5032830;28;19920;-77
2022/10/30 10:21:26;;;;;;;;;;;18.60;93.30;;;;;;5031485;28;19916;-78
2022/10/30 10:23:58;;;;;;;;;;;18.60;93.50;;;;;;5043333;28;19913;-74
2022/10/30 10:26:24;;;;;;;;;;;18.50;93.70;;;;;;5048388;28;19943;-78
2022/10/30 10:28:51;;;;;;;;;;;18.50;93.80;;;;;;5050425;28;19962;-77
2022/10/30 10:31:32;;;;;;;;;;;18.50;93.90;;;;;;5051390;28;19940;-78
2022/10/30 10:34:11;;;;;;;;;;;18.50;94.00;;;;;;5050383;28;19913;-77
2022/10/30 10:36:45;;;;;;;;;;;18.50;94.10;;;;;;5051348;28;20249;-77
2022/10/30 10:39:27;;;;;;;;;;;18.50;94.30;;;;;;5047924;28;19917;-78
2022/10/30 10:42:26;;;;;;;;;;;18.50;94.40;;;;;;5031448;28;19909;-78
2022/10/30 10:44:56;;;;;;;;;;;18.50;94.40;;;;;;5004891;28;19952;-76
2022/10/30 10:47:22;;;;;;;;;;;18.50;94.50;;;;;;5037660;28;19999;-73
2022/10/30 10:50:07;;;;;;;;;;;18.40;94.60;;;;;;5049398;28;20278;-79
2022/10/30 10:52:42;;;;;;;;;;;18.30;94.90;;;;;;5051248;28;19924;-74
2022/10/30 10:55:13;;;;;;;;;;;18.30;95.10;;;;;;5050610;28;19975;-75
2022/10/30 10:57:41;;;;;;;;;;;18.20;95.30;;;;;;5050640;28;19913;-77
2022/10/30 11:00:12;;;;;;;;;;;18.10;95.40;;;;;;5050178;28;19927;-74
2022/10/30 11:02:57;;;;;;;;;;;18.10;96.00;;;;;;5051433;28;19909;-74
2022/10/30 11:05:26;;;;;;;;;;;18.00;95.70;;;;;;5036179;28;20012;-76
2022/10/30 11:07:57;;;;;;;;;;;17.90;96.10;;;;;;5052686;28;19923;-77
2022/10/30 11:10:25;;;;;;;;;;;17.90;96.30;;;;;;5054132;28;19912;-78
2022/10/30 11:12:51;;;;;;;;;;;17.80;96.60;;;;;;5054105;28;19928;-78
2022/10/30 11:15:41;;;;;;;;;;;17.80;97.00;;;;;;5039779;28;19928;-78
2022/10/30 11:18:09;;;;;;;;;;;17.70;97.00;;;;;;5026695;28;20374;-77
2022/10/30 11:20:53;;;;;;;;;;;17.70;97.40;;;;;;5052362;28;19913;-77
2022/10/30 11:23:33;;;;;;;;;;;17.70;97.70;;;;;;5040891;28;19963;-78
2022/10/30 11:26:01;;;;;;;;;;;17.60;97.70;;;;;;5039172;28;19928;-76
2022/10/30 11:28:33;;;;;;;;;;;17.60;97.80;;;;;;5052866;28;20020;-76
2022/10/30 11:31:43;;;;;;;;;;;17.50;98.00;;;;;;5035176;28;19909;-76
2022/10/30 11:34:19;;;;;;;;;;;17.60;98.20;;;;;;5035596;28;19921;-77
2022/10/30 11:36:46;;;;;;;;;;;17.50;98.50;;;;;;5034704;28;19916;-77
2022/10/30 11:39:16;;;;;;;;;;;17.60;98.60;;;;;;5046232;28;19916;-77
2022/10/30 11:41:45;;;;;;;;;;;17.50;98.60;;;;;;5052455;28;20379;-76
2022/10/30 11:44:12;;;;;;;;;;;17.50;98.70;;;;;;5052018;28;19913;-76
2022/10/30 11:46:40;;;;;;;;;;;17.40;98.80;;;;;;5052490;28;19917;-76
2022/10/30 11:49:22;;;;;;;;;;;17.40;99.00;;;;;;5051717;28;19912;-73
2022/10/30 11:51:49;;;;;;;;;;;17.40;99.20;;;;;;5053033;28;19921;-75
2022/10/30 11:54:20;;;;;;;;;;;17.40;99.20;;;;;;5053745;28;19920;-77
2022/10/30 11:56:47;;;;;;;;;;;17.50;99.30;;;;;;5054675;28;19915;-75
2022/10/30 11:59:17;;;;;;;;;;;17.50;99.20;;;;;;5045897;28;19952;-77
2022/10/30 12:01:57;;;;;;;;;;;17.60;99.30;;;;;;5053678;28;20007;-69
2022/10/30 12:04:26;;;;;;;;;;;17.60;99.30;;;;;;5052667;28;19913;-76
2022/10/30 12:07:09;;;;;;;;;;;17.60;99.40;;;;;;5052494;28;19913;-76
2022/10/30 12:09:42;;;;;;;;;;;17.60;99.40;;;;;;5052373;28;19924;-77
2022/10/30 12:12:18;;;;;;;;;;;17.70;99.60;;;;;;5054077;28;19963;-76
2022/10/30 12:14:45;;;;;;;;;;;17.70;99.40;;;;;;5053583;28;20378;-78
2022/10/30 12:17:14;;;;;;;;;;;17.80;99.60;;;;;;5053309;28;19913;-75
2022/10/30 12:19:48;;;;;;;;;;;17.80;99.70;;;;;;5053288;28;19917;-76
2022/10/30 12:22:29;;;;;;;;;;;17.80;99.40;;;;;;5053406;28;20433;-76
2022/10/30 12:24:57;;;;;;;;;;;17.80;99.40;;;;;;5053403;28;19912;-78
2022/10/30 12:27:24;;;;;;;;;;;17.80;99.50;;;;;;5054126;28;19974;-78
2022/10/30 12:30:04;;;;;;;;;;;17.80;99.50;;;;;;5051237;28;19912;-73
2022/10/30 12:32:45;;;;;;;;;;;17.90;99.40;;;;;;5044856;28;20294;-77
2022/10/30 12:35:21;;;;;;;;;;;17.80;99.60;;;;;;5039804;28;20028;-78
2022/10/30 12:37:49;;;;;;;;;;;17.90;99.50;;;;;;5033879;28;19917;-77
2022/10/30 12:40:18;;;;;;;;;;;17.90;99.60;;;;;;5048832;28;19927;-75
2022/10/30 12:42:51;;;;;;;;;;;17.90;99.50;;;;;;5053742;28;20406;-76
2022/10/30 12:45:23;;;;;;;;;;;17.90;99.60;;;;;;5038018;28;20377;-78
2022/10/30 12:47:52;;;;;;;;;;;17.90;99.50;;;;;;5051895;28;19952;-78
2022/10/30 12:50:24;;;;;;;;;;;17.90;99.50;;;;;;5036345;28;19936;-78
2022/10/30 12:52:51;;;;;;;;;;;17.90;99.30;;;;;;5033200;28;19921;-76
2022/10/30 12:55:17;;;;;;;;;;;17.90;99.50;;;;;;5034173;28;19909;-77
2022/10/30 12:57:54;;;;;;;;;;;17.80;99.40;;;;;;5033147;28;20371;-77
2022/10/30 13:00:20;;;;;;;;;;;17.80;99.40;;;;;;5048083;28;20326;-79
2022/10/30 13:02:47;;;;;;;;;;;17.80;99.70;;;;;;5051618;28;19913;-78
2022/10/30 13:05:32;;;;;;;;;;;17.80;99.50;;;;;;5036985;28;19917;-78
2022/10/30 13:08:02;;;;;;;;;;;17.80;99.50;;;;;;5031625;28;20012;-77
2022/10/30 13:10:28;;;;;;;;;;;17.80;99.90;;;;;;5048327;28;20012;-74
2022/10/30 13:13:00;;;;;;;;;;;17.80;99.90;;;;;;5051575;28;19960;-77
2022/10/30 13:15:36;;;;;;;;;;;17.80;99.90;;;;;;5050574;28;20310;-75
2022/10/30 13:18:26;;;;;;;;;;;17.80;99.90;;;;;;5052524;28;19920;-76
2022/10/30 13:21:11;;;;;;;;;;;17.80;99.90;;;;;;5039944;28;20007;-78
2022/10/30 13:23:48;;;;;;;;;;;17.80;99.80;;;;;;5051674;28;19913;-77
2022/10/30 13:26:32;;;;;;;;;;;17.80;99.90;;;;;;5032968;28;19933;-75
2022/10/30 13:29:05;;;;;;;;;;;17.90;99.90;;;;;;5037120;28;20256;-76
2022/10/30 13:31:34;;;;;;;;;;;17.90;99.90;;;;;;5051133;28;20455;-76
2022/10/30 13:34:19;;;;;;;;;;;17.90;99.90;;;;;;5037406;28;19927;-74
2022/10/30 13:36:58;;;;;;;;;;;17.90;99.90;;;;;;5051885;28;19917;-76
2022/10/30 13:39:32;;;;;;;;;;;17.90;99.90;;;;;;5050827;28;19913;-75
2022/10/30 13:41:59;;;;;;;;;;;17.80;99.90;;;;;;5050846;28;19920;-76
2022/10/30 13:44:31;;;;;;;;;;;17.90;99.90;;;;;;5051692;28;20291;-74
2022/10/30 13:47:08;;;;;;;;;;;17.90;99.90;;;;;;5051846;28;19963;-71
2022/10/30 13:49:34;;;;;;;;;;;17.90;99.90;;;;;;5050895;28;20296;-76
2022/10/30 13:52:01;;;;;;;;;;;17.90;99.90;;;;;;5051022;28;19921;-73
2022/10/30 13:54:53;;;;;;;;;;;17.90;99.90;;;;;;5040108;28;20280;-76
2022/10/30 13:57:46;;;;;;;;;;;17.80;99.90;;;;;;5048826;28;19916;-76
2022/10/30 14:00:18;;;;;;;;;;;17.80;99.90;;;;;;5051642;28;19912;-72
2022/10/30 14:02:51;;;;;;;;;;;17.80;99.90;;;;;;5052589;28;19913;-74
2022/10/30 14:05:33;;;;;;;;;;;17.80;99.90;;;;;;5037080;28;20389;-77
2022/10/30 14:07:59;;;;;;;;;;;17.80;99.90;;;;;;5041308;28;19913;-76
2022/10/30 14:10:37;;;;;;;;;;;17.90;99.90;;;;;;5036030;28;19917;-77
2022/10/30 14:13:14;;;;;;;;;;;17.80;99.90;;;;;;5052194;28;20294;-75
2022/10/30 14:15:42;;;;;;;;;;;17.90;99.90;;;;;;5051249;28;19913;-73
2022/10/30 14:18:11;;;;;;;;;;;17.90;99.90;;;;;;5051138;28;19971;-77
2022/10/30 14:20:38;;;;;;;;;;;17.90;99.90;;;;;;5051429;28;19921;-76
2022/10/30 14:23:15;;;;;;;;;;;17.90;99.90;;;;;;5051646;28;19937;-75
2022/10/30 14:25:42;;;;;;;;;;;17.90;99.90;;;;;;5033926;28;19932;-78
2022/10/30 14:28:19;;;;;;;;;;;17.90;99.90;;;;;;5036942;28;19921;-78
2022/10/30 14:30:46;;;;;;;;;;;17.90;99.90;;;;;;5033161;28;19909;-75
2022/10/30 14:33:31;;;;;;;;;;;17.90;99.90;;;;;;5032277;28;19928;-77